KPDK/PDK METAR and TAF weather

Enter ICAO airport designator
Station Type Date Time Source
KPDK METAR 2021/04/17 00:53 UTC NOAA

KPDK 170053Z 27004KT 10SM CLR 16/03 A2986 RMK AO2 SLP108 T01610033


Station Type Date Time Source
KPDK Decoded METAR 2021/04/17 00:53 UTC NOAA

ATLANTA DE KALB-PEACHTREE, GA, United States (KPDK) 33-53N 084-18W 302M
Apr 16, 2021 - 08:53 PM EDT / 2021.04.17 0053 UTC
Wind: from the W (270 degrees) at 5 MPH (4 KT):0
Visibility: 10 mile(s):0
Sky conditions: clear
Temperature: 61.0 F (16.1 C)
Dew Point: 37.9 F (3.3 C)
Relative Humidity: 42%
Pressure (altimeter): 29.86 in. Hg (1011 hPa)
ob: KPDK 170053Z 27004KT 10SM CLR 16/03 A2986 RMK AO2 SLP108 T01610033
cycle: 1

Station Type Date Time Source
KPDK TAF 2021/04/16 18:42 UTC NOAA

TAF KPDK 161740Z 1618/1718 12003KT P6SM SCT150 BKN200
FM162100 27004KT P6SM BKN250
FM170200 VRB03KT P6SM BKN150
FM170900 VRB03KT P6SM VCSH SCT025 OVC050 PROB30 1710/1714 6SM -SHRA BKN025
FM171400 VRB03KT P6SM -SHRA SCT015 OVC030

Example: see airport list